Main page
METAR-TAF:

METAR-TAF

Airports :

Dundee, Scotland

Dundee Airport

latitude: 56-27N, longitude: 003-01W, elevation: 4 m

Current weather observation

The report was made 11 hours and 58 minutes ago, at 19:20 UTC
Wind 12 kt from the West
Temperature 14°C
Humidity 88%
Pressure 1000 hPa
Visibility 10 km or more
Few clouds at a height of 3000 ft

METAR: EGPN 181920Z 26012KT 9999 FEW030 14/12 Q1000

Time: 08:18 (07:18 UTC)

Forecast

The report was made 14 hours and 14 minutes ago, at 17:04 UTC
Forecast valid from 18 at 18 UTC to 18 at 20 UTC
Wind 12 kt from the West/Southwest
Visibility 10 km or more
Scattered clouds at a height of 2000 ft

TAF: EGPN 181704Z 1818/1820 25012KT 9999 SCT020

Weather observations and forecasts of more than 4000 airports (METAR and TAF reports).

The available stations are represented by yellow and red dots on the map.

Hover mouse over dot to see the name of the station.

Then click to see weather observations and forecasts.

To change the map : click on the green buttons with a black cross to zoom in, on the green button with a dash to zoom out, or on the green arrows for adjacent maps.


METAR-TAF: